Bookmark and Share
Track history (hours):
 

Liberty Promise

More information available from US FCC via Universal Licensing System and Coast Guard Vessel Documentation Center.

Last reported at 2014-Apr-18 06:00 UTC. Time now 2014-Apr-20 23:56 UTC.
Position N 26°54' E 035°06'.

Length 200 m; draft 9.5 m.

Type: Cargo ship. MMSI: 366102000.

Wind from 350 at 9 knots

Waves 0.5 meters (2 feet), 4 second period

Barometer 1020.0 mb
Air temperature 25.0 ° C
Visibility: greater than 10.8 NM
Dewpoint 23.6 ° C
Water temperature 25.0 ° C

NotesDate/timePositionNaut miles runAvg speedWind from/ knotsBaromVisibWave heightAir tempDewpointWater temp
2014-Apr-18 06:00N 26°54' E 035°06'   350 / 91020.010.8 0.525.023.625.0
2014-Apr-14 20:32N 31°23' E 032°20'0 0.0
2014-Apr-14 19:32N 31°23' E 032°20'141 5.5
2014-Apr-13 18:00N 33°12' E 034°06'1324.3 320 / 61022.010.8 20.018.519.8
2014-Apr-13 17:28N 33°20' E 034°18'3214.1
2014-Apr-13 15:12N 33°39' E 034°49'1114.5
2014-Apr-13 14:27N 33°46' E 034°59'13 1.0
2014-Apr-13 01:33N 33°58' E 034°55'1515.5
2014-Apr-13 00:33N 34°01' E 034°36'3315.5
2014-Apr-12 22:25N 34°07' E 033°57'3615.7
2014-Apr-12 20:06N 34°14' E 033°14'815.6
2014-Apr-12 19:34N 34°15' E 033°04'1616.0
2014-Apr-12 18:33N 34°18' E 032°45'1616.1
2014-Apr-12 17:33N 34°21' E 032°25'1716.3
2014-Apr-12 16:29N 34°25' E 032°05'33316.4
2014-Apr-11 20:10N 35°41' E 025°29'1017.0
2014-Apr-11 19:33N 35°44' E 025°16'1832.1
2014-Apr-11 19:00N 35°42' E 024°54'511.9 250 / 111026.010.8 0.519.015.917.7
2014-Apr-11 18:32N 35°47' E 024°55'1716.9
2014-Apr-11 17:32N 35°51' E 024°35'1816.7
2014-Apr-11 16:28N 35°55' E 024°14'20119.1
2014-Apr-11 06:00N 36°06' E 020°06'23213.9 320 / 211025.010.8 1.016.012.617.6
2014-Apr-10 13:16N 36°25' E 015°19'1216.2
2014-Apr-10 12:33N 36°25' E 015°05'45814.3
2014-Apr-09 04:28N 42°58' E 009°60'1415.5
2014-Apr-09 03:33N 43°11' E 010°05'1616.0
2014-Apr-09 02:33N 43°27' E 010°11'9 9.0
2014-Apr-09 01:33N 43°34' E 010°18'1 0.7
2014-Apr-09 00:33N 43°35' E 010°18'0 0.0
2014-Apr-08 23:33N 43°35' E 010°18'0 0.0
2014-Apr-08 22:33N 43°35' E 010°18'0 0.0
2014-Apr-08 21:33N 43°35' E 010°18'0 0.0
2014-Apr-08 20:33N 43°35' E 010°18'0 0.0
2014-Apr-08 19:33N 43°35' E 010°18'0 0.0
2014-Apr-08 18:33N 43°35' E 010°18'0 0.0
2014-Apr-08 17:33N 43°35' E 010°18'0 0.0
2014-Apr-08 16:33N 43°35' E 010°18'0 0.0
2014-Apr-08 15:33N 43°35' E 010°18'0 0.0
2014-Apr-08 14:33N 43°35' E 010°18'0 0.0
2014-Apr-08 13:33N 43°35' E 010°18'0 0.0
2014-Apr-08 12:33N 43°35' E 010°18'0 0.0
2014-Apr-08 11:33N 43°35' E 010°18'0 0.0
2014-Apr-08 10:33N 43°35' E 010°18'0 0.0
2014-Apr-08 09:33N 43°35' E 010°18'0 0.0
2014-Apr-08 08:33N 43°35' E 010°18'0 0.0
2014-Apr-08 07:33N 43°35' E 010°18'0 0.0
2014-Apr-08 06:33N 43°35' E 010°18'  

Dump ship's entire track history

sailing weather and tide predictions

Liberty Promise — WWMZ — position and weather